sensor_id;sensor_type;location;lat;lon;timestamp;pressure;altitude;pressure_sealevel;temperature;humidity
45071;BME280;30836;48.906;9.140;2024-03-17T00:00:37;993.66;;;17.37;45.67
45071;BME280;30836;48.906;9.140;2024-03-17T00:01:38;993.68;;;17.36;45.75
45071;BME280;30836;48.906;9.140;2024-03-17T00:02:39;993.66;;;17.35;45.83
45071;BME280;30836;48.906;9.140;2024-03-17T00:03:39;993.66;;;17.35;45.89
45071;BME280;30836;48.906;9.140;2024-03-17T00:04:39;993.64;;;17.34;45.80
45071;BME280;30836;48.906;9.140;2024-03-17T00:05:40;993.64;;;17.34;45.91
45071;BME280;30836;48.906;9.140;2024-03-17T00:06:40;993.64;;;17.34;46.02
45071;BME280;30836;48.906;9.140;2024-03-17T00:07:41;993.64;;;17.34;46.18
45071;BME280;30836;48.906;9.140;2024-03-17T00:08:42;993.64;;;17.34;46.14
45071;BME280;30836;48.906;9.140;2024-03-17T00:09:42;993.66;;;17.35;46.20
45071;BME280;30836;48.906;9.140;2024-03-17T00:10:42;993.66;;;17.35;46.09
45071;BME280;30836;48.906;9.140;2024-03-17T00:11:43;993.66;;;17.34;45.96
45071;BME280;30836;48.906;9.140;2024-03-17T00:12:44;993.66;;;17.32;45.96
45071;BME280;30836;48.906;9.140;2024-03-17T00:13:45;993.64;;;17.30;46.06
45071;BME280;30836;48.906;9.140;2024-03-17T00:14:45;993.66;;;17.28;46.08
45071;BME280;30836;48.906;9.140;2024-03-17T00:15:46;993.64;;;17.26;46.03
45071;BME280;30836;48.906;9.140;2024-03-17T00:16:46;993.62;;;17.25;46.07
45071;BME280;30836;48.906;9.140;2024-03-17T00:17:46;993.60;;;17.25;46.07
45071;BME280;30836;48.906;9.140;2024-03-17T00:18:47;993.60;;;17.24;46.00
45071;BME280;30836;48.906;9.140;2024-03-17T00:19:47;993.60;;;17.23;46.02
45071;BME280;30836;48.906;9.140;2024-03-17T00:20:48;993.60;;;17.23;46.06
45071;BME280;30836;48.906;9.140;2024-03-17T00:21:48;993.58;;;17.23;46.02
45071;BME280;30836;48.906;9.140;2024-03-17T00:22:49;993.60;;;17.23;46.04
45071;BME280;30836;48.906;9.140;2024-03-17T00:23:50;993.62;;;17.22;46.03
45071;BME280;30836;48.906;9.140;2024-03-17T00:24:50;993.64;;;17.22;46.06
45071;BME280;30836;48.906;9.140;2024-03-17T00:25:51;993.62;;;17.22;46.15
45071;BME280;30836;48.906;9.140;2024-03-17T00:26:51;993.64;;;17.21;46.21
45071;BME280;30836;48.906;9.140;2024-03-17T00:27:52;993.66;;;17.20;46.28
45071;BME280;30836;48.906;9.140;2024-03-17T00:28:52;993.62;;;17.20;46.31
45071;BME280;30836;48.906;9.140;2024-03-17T00:29:52;993.60;;;17.20;46.25
45071;BME280;30836;48.906;9.140;2024-03-17T00:30:53;993.60;;;17.19;46.11
45071;BME280;30836;48.906;9.140;2024-03-17T00:31:53;993.54;;;17.18;46.20
45071;BME280;30836;48.906;9.140;2024-03-17T00:32:54;993.54;;;17.17;46.27
45071;BME280;30836;48.906;9.140;2024-03-17T00:33:55;993.54;;;17.16;46.26
45071;BME280;30836;48.906;9.140;2024-03-17T00:34:55;993.52;;;17.14;46.30
45071;BME280;30836;48.906;9.140;2024-03-17T00:35:55;993.50;;;17.13;46.29
45071;BME280;30836;48.906;9.140;2024-03-17T00:36:56;993.50;;;17.11;46.22
45071;BME280;30836;48.906;9.140;2024-03-17T00:37:56;993.48;;;17.10;46.21
45071;BME280;30836;48.906;9.140;2024-03-17T00:38:57;993.50;;;17.07;46.28
45071;BME280;30836;48.906;9.140;2024-03-17T00:39:57;993.48;;;17.04;46.39
45071;BME280;30836;48.906;9.140;2024-03-17T00:40:57;993.50;;;17.01;46.35
45071;BME280;30836;48.906;9.140;2024-03-17T00:41:59;993.50;;;16.98;46.42
45071;BME280;30836;48.906;9.140;2024-03-17T00:42:59;993.52;;;16.95;46.63
45071;BME280;30836;48.906;9.140;2024-03-17T00:44:00;993.50;;;16.93;46.58
45071;BME280;30836;48.906;9.140;2024-03-17T00:45:00;993.48;;;16.92;46.47
45071;BME280;30836;48.906;9.140;2024-03-17T00:46:01;993.48;;;16.90;46.58
45071;BME280;30836;48.906;9.140;2024-03-17T00:47:01;993.48;;;16.87;46.58
45071;BME280;30836;48.906;9.140;2024-03-17T00:48:02;993.48;;;16.86;46.61
45071;BME280;30836;48.906;9.140;2024-03-17T00:49:02;993.50;;;16.84;46.67
45071;BME280;30836;48.906;9.140;2024-03-17T00:50:03;993.50;;;16.84;46.72
45071;BME280;30836;48.906;9.140;2024-03-17T00:51:04;993.50;;;16.83;46.72
45071;BME280;30836;48.906;9.140;2024-03-17T00:52:05;993.48;;;16.81;46.73
45071;BME280;30836;48.906;9.140;2024-03-17T00:53:05;993.46;;;16.80;46.79
45071;BME280;30836;48.906;9.140;2024-03-17T00:54:06;993.46;;;16.78;46.82
45071;BME280;30836;48.906;9.140;2024-03-17T00:55:06;993.40;;;16.77;46.80
45071;BME280;30836;48.906;9.140;2024-03-17T00:56:07;993.40;;;16.76;46.78
45071;BME280;30836;48.906;9.140;2024-03-17T00:57:08;993.38;;;16.75;46.72
45071;BME280;30836;48.906;9.140;2024-03-17T00:58:08;993.38;;;16.73;46.76
45071;BME280;30836;48.906;9.140;2024-03-17T00:59:09;993.36;;;16.71;46.93
45071;BME280;30836;48.906;9.140;2024-03-17T01:00:09;993.36;;;16.70;46.92
45071;BME280;30836;48.906;9.140;2024-03-17T01:01:10;993.36;;;16.68;46.98
45071;BME280;30836;48.906;9.140;2024-03-17T01:02:11;993.34;;;16.67;47.04
45071;BME280;30836;48.906;9.140;2024-03-17T01:03:12;993.34;;;16.67;47.10
45071;BME280;30836;48.906;9.140;2024-03-17T01:04:12;993.32;;;16.66;47.14
45071;BME280;30836;48.906;9.140;2024-03-17T01:05:12;993.32;;;16.66;47.21
45071;BME280;30836;48.906;9.140;2024-03-17T01:06:13;993.30;;;16.66;47.33
45071;BME280;30836;48.906;9.140;2024-03-17T01:07:13;993.30;;;16.66;47.40
45071;BME280;30836;48.906;9.140;2024-03-17T01:08:14;993.30;;;16.66;47.49
45071;BME280;30836;48.906;9.140;2024-03-17T01:09:14;993.30;;;16.65;47.57
45071;BME280;30836;48.906;9.140;2024-03-17T01:10:15;993.28;;;16.66;47.60
45071;BME280;30836;48.906;9.140;2024-03-17T01:11:15;993.28;;;16.65;47.67
45071;BME280;30836;48.906;9.140;2024-03-17T01:12:16;993.30;;;16.65;47.69
45071;BME280;30836;48.906;9.140;2024-03-17T01:13:17;993.28;;;16.64;47.65
45071;BME280;30836;48.906;9.140;2024-03-17T01:14:18;993.28;;;16.61;47.72
45071;BME280;30836;48.906;9.140;2024-03-17T01:15:18;993.27;;;16.60;47.81
45071;BME280;30836;48.906;9.140;2024-03-17T01:16:18;993.27;;;16.59;47.83
45071;BME280;30836;48.906;9.140;2024-03-17T01:17:19;993.27;;;16.59;47.90
45071;BME280;30836;48.906;9.140;2024-03-17T01:18:19;993.27;;;16.59;47.93
45071;BME280;30836;48.906;9.140;2024-03-17T01:19:20;993.27;;;16.59;47.90
45071;BME280;30836;48.906;9.140;2024-03-17T01:20:20;993.28;;;16.58;47.94
45071;BME280;30836;48.906;9.140;2024-03-17T01:21:21;993.30;;;16.57;47.96
45071;BME280;30836;48.906;9.140;2024-03-17T01:22:22;993.28;;;16.55;48.09
45071;BME280;30836;48.906;9.140;2024-03-17T01:23:22;993.28;;;16.53;48.16
45071;BME280;30836;48.906;9.140;2024-03-17T01:24:23;993.28;;;16.52;48.23
45071;BME280;30836;48.906;9.140;2024-03-17T01:25:23;993.27;;;16.51;48.28
45071;BME280;30836;48.906;9.140;2024-03-17T01:26:24;993.25;;;16.49;48.22
45071;BME280;30836;48.906;9.140;2024-03-17T01:27:24;993.25;;;16.48;48.26
45071;BME280;30836;48.906;9.140;2024-03-17T01:28:25;993.21;;;16.46;48.39
45071;BME280;30836;48.906;9.140;2024-03-17T01:29:25;993.23;;;16.44;48.31
45071;BME280;30836;48.906;9.140;2024-03-17T01:30:26;993.21;;;16.42;48.32
45071;BME280;30836;48.906;9.140;2024-03-17T01:31:27;993.17;;;16.41;48.41
45071;BME280;30836;48.906;9.140;2024-03-17T01:32:27;993.17;;;16.40;48.54
45071;BME280;30836;48.906;9.140;2024-03-17T01:33:28;993.17;;;16.40;48.55
45071;BME280;30836;48.906;9.140;2024-03-17T01:34:28;993.17;;;16.41;48.54
45071;BME280;30836;48.906;9.140;2024-03-17T01:35:29;993.17;;;16.43;48.49
45071;BME280;30836;48.906;9.140;2024-03-17T01:36:29;993.17;;;16.44;48.48
45071;BME280;30836;48.906;9.140;2024-03-17T01:37:29;993.15;;;16.45;48.53
45071;BME280;30836;48.906;9.140;2024-03-17T01:38:30;993.17;;;16.46;48.59
45071;BME280;30836;48.906;9.140;2024-03-17T01:39:30;993.15;;;16.47;48.62
45071;BME280;30836;48.906;9.140;2024-03-17T01:40:31;993.15;;;16.48;48.58
45071;BME280;30836;48.906;9.140;2024-03-17T01:41:31;993.13;;;16.49;48.55
45071;BME280;30836;48.906;9.140;2024-03-17T01:42:32;993.13;;;16.49;48.48
45071;BME280;30836;48.906;9.140;2024-03-17T01:43:32;993.09;;;16.48;48.54
45071;BME280;30836;48.906;9.140;2024-03-17T01:44:33;993.09;;;16.47;48.54
45071;BME280;30836;48.906;9.140;2024-03-17T01:45:33;993.05;;;16.47;48.49
45071;BME280;30836;48.906;9.140;2024-03-17T01:46:34;993.01;;;16.46;48.57
45071;BME280;30836;48.906;9.140;2024-03-17T01:47:34;992.99;;;16.45;48.63
45071;BME280;30836;48.906;9.140;2024-03-17T01:48:35;992.95;;;16.44;48.56
45071;BME280;30836;48.906;9.140;2024-03-17T01:49:35;992.95;;;16.43;48.62
45071;BME280;30836;48.906;9.140;2024-03-17T01:50:37;992.97;;;16.42;48.61
45071;BME280;30836;48.906;9.140;2024-03-17T01:51:38;992.95;;;16.41;48.62
45071;BME280;30836;48.906;9.140;2024-03-17T01:52:38;992.93;;;16.42;48.67
45071;BME280;30836;48.906;9.140;2024-03-17T01:53:39;992.95;;;16.42;48.60
45071;BME280;30836;48.906;9.140;2024-03-17T01:54:41;992.95;;;16.43;48.58
45071;BME280;30836;48.906;9.140;2024-03-17T01:55:43;992.97;;;16.44;48.50
45071;BME280;30836;48.906;9.140;2024-03-17T01:56:46;992.95;;;16.45;48.53
45071;BME280;30836;48.906;9.140;2024-03-17T01:57:48;992.97;;;16.46;48.59
45071;BME280;30836;48.906;9.140;2024-03-17T01:58:50;992.99;;;16.48;48.56
45071;BME280;30836;48.906;9.140;2024-03-17T01:59:50;992.99;;;16.47;48.57
45071;BME280;30836;48.906;9.140;2024-03-17T02:00:51;992.95;;;16.45;48.71
45071;BME280;30836;48.906;9.140;2024-03-17T02:01:51;992.95;;;16.43;48.82
45071;BME280;30836;48.906;9.140;2024-03-17T02:02:52;992.93;;;16.42;48.87
45071;BME280;30836;48.906;9.140;2024-03-17T02:03:52;992.93;;;16.42;48.79
45071;BME280;30836;48.906;9.140;2024-03-17T02:04:53;992.89;;;16.43;48.82
45071;BME280;30836;48.906;9.140;2024-03-17T02:05:53;992.89;;;16.44;48.82
45071;BME280;30836;48.906;9.140;2024-03-17T02:06:54;992.89;;;16.45;48.85
45071;BME280;30836;48.906;9.140;2024-03-17T02:07:54;992.87;;;16.46;48.94
45071;BME280;30836;48.906;9.140;2024-03-17T02:08:55;992.89;;;16.46;48.94
45071;BME280;30836;48.906;9.140;2024-03-17T02:09:58;992.87;;;16.45;48.98
45071;BME280;30836;48.906;9.140;2024-03-17T02:10:59;992.85;;;16.46;48.99
45071;BME280;30836;48.906;9.140;2024-03-17T02:11:59;992.83;;;16.47;49.03
45071;BME280;30836;48.906;9.140;2024-03-17T02:13:00;992.79;;;16.49;49.03
45071;BME280;30836;48.906;9.140;2024-03-17T02:14:01;992.81;;;16.50;49.02
45071;BME280;30836;48.906;9.140;2024-03-17T02:15:02;992.79;;;16.51;49.11
45071;BME280;30836;48.906;9.140;2024-03-17T02:16:03;992.77;;;16.52;49.03
45071;BME280;30836;48.906;9.140;2024-03-17T02:17:03;992.75;;;16.52;49.01
45071;BME280;30836;48.906;9.140;2024-03-17T02:18:04;992.75;;;16.52;49.04
45071;BME280;30836;48.906;9.140;2024-03-17T02:19:05;992.73;;;16.53;49.00
45071;BME280;30836;48.906;9.140;2024-03-17T02:20:05;992.75;;;16.54;48.99
45071;BME280;30836;48.906;9.140;2024-03-17T02:21:06;992.75;;;16.55;49.03
45071;BME280;30836;48.906;9.140;2024-03-17T02:23:15;992.75;;;16.55;49.15
45071;BME280;30836;48.906;9.140;2024-03-17T02:24:15;992.75;;;16.56;49.18
45071;BME280;30836;48.906;9.140;2024-03-17T02:25:16;992.75;;;16.57;49.17
45071;BME280;30836;48.906;9.140;2024-03-17T02:26:16;992.73;;;16.58;49.18
45071;BME280;30836;48.906;9.140;2024-03-17T02:27:17;992.73;;;16.59;49.21
45071;BME280;30836;48.906;9.140;2024-03-17T02:28:17;992.72;;;16.60;49.25
45071;BME280;30836;48.906;9.140;2024-03-17T02:29:18;992.70;;;16.61;49.25
45071;BME280;30836;48.906;9.140;2024-03-17T02:30:18;992.68;;;16.62;49.23
45071;BME280;30836;48.906;9.140;2024-03-17T02:31:19;992.66;;;16.63;49.27
45071;BME280;30836;48.906;9.140;2024-03-17T02:32:19;992.68;;;16.64;49.27
45071;BME280;30836;48.906;9.140;2024-03-17T02:33:20;992.70;;;16.65;49.24
45071;BME280;30836;48.906;9.140;2024-03-17T02:34:20;992.66;;;16.67;49.25
45071;BME280;30836;48.906;9.140;2024-03-17T02:35:21;992.68;;;16.68;49.23
45071;BME280;30836;48.906;9.140;2024-03-17T02:36:22;992.68;;;16.69;49.18
45071;BME280;30836;48.906;9.140;2024-03-17T02:37:23;992.68;;;16.68;49.08
45071;BME280;30836;48.906;9.140;2024-03-17T02:38:23;992.70;;;16.66;49.13
45071;BME280;30836;48.906;9.140;2024-03-17T02:39:24;992.70;;;16.65;49.21
45071;BME280;30836;48.906;9.140;2024-03-17T02:40:24;992.70;;;16.64;49.24
45071;BME280;30836;48.906;9.140;2024-03-17T02:41:25;992.66;;;16.64;49.25
45071;BME280;30836;48.906;9.140;2024-03-17T02:42:26;992.60;;;16.64;49.22
45071;BME280;30836;48.906;9.140;2024-03-17T02:43:26;992.60;;;16.63;49.22
45071;BME280;30836;48.906;9.140;2024-03-17T02:44:27;992.58;;;16.62;49.21
45071;BME280;30836;48.906;9.140;2024-03-17T02:45:28;992.56;;;16.61;49.27
45071;BME280;30836;48.906;9.140;2024-03-17T02:46:28;992.56;;;16.60;49.26
45071;BME280;30836;48.906;9.140;2024-03-17T02:47:29;992.56;;;16.60;49.25
45071;BME280;30836;48.906;9.140;2024-03-17T02:48:30;992.56;;;16.61;49.30
45071;BME280;30836;48.906;9.140;2024-03-17T02:49:31;992.56;;;16.61;49.29
45071;BME280;30836;48.906;9.140;2024-03-17T02:49:41;992.58;;;16.60;49.29
45071;BME280;30836;48.906;9.140;2024-03-17T02:50:42;992.58;;;16.61;49.22
45071;BME280;30836;48.906;9.140;2024-03-17T02:51:42;992.58;;;16.58;49.37
45071;BME280;30836;48.906;9.140;2024-03-17T02:52:43;992.54;;;16.51;49.72
45071;BME280;30836;48.906;9.140;2024-03-17T02:53:43;992.54;;;16.40;49.90
45071;BME280;30836;48.906;9.140;2024-03-17T02:54:45;992.50;;;16.29;50.10
45071;BME280;30836;48.906;9.140;2024-03-17T02:55:45;992.50;;;16.19;50.31
45071;BME280;30836;48.906;9.140;2024-03-17T02:56:46;992.48;;;16.11;50.43
45071;BME280;30836;48.906;9.140;2024-03-17T02:57:46;992.50;;;16.04;50.49
45071;BME280;30836;48.906;9.140;2024-03-17T02:58:47;992.46;;;15.96;50.67
45071;BME280;30836;48.906;9.140;2024-03-17T02:59:48;992.46;;;15.92;50.76
45071;BME280;30836;48.906;9.140;2024-03-17T03:00:48;992.46;;;15.90;50.86
45071;BME280;30836;48.906;9.140;2024-03-17T03:01:49;992.46;;;15.88;50.90
45071;BME280;30836;48.906;9.140;2024-03-17T03:02:49;992.46;;;15.87;50.93
45071;BME280;30836;48.906;9.140;2024-03-17T03:03:49;992.46;;;15.86;50.97
45071;BME280;30836;48.906;9.140;2024-03-17T03:04:50;992.44;;;15.85;50.95
45071;BME280;30836;48.906;9.140;2024-03-17T03:05:51;992.46;;;15.84;51.03
45071;BME280;30836;48.906;9.140;2024-03-17T03:06:51;992.46;;;15.83;50.92
45071;BME280;30836;48.906;9.140;2024-03-17T03:07:51;992.50;;;15.79;51.02
45071;BME280;30836;48.906;9.140;2024-03-17T03:08:52;992.54;;;15.75;51.02
45071;BME280;30836;48.906;9.140;2024-03-17T03:09:52;992.54;;;15.72;51.10
45071;BME280;30836;48.906;9.140;2024-03-17T03:10:53;992.54;;;15.71;51.18
45071;BME280;30836;48.906;9.140;2024-03-17T03:11:53;992.58;;;15.70;51.15
45071;BME280;30836;48.906;9.140;2024-03-17T03:12:54;992.58;;;15.69;51.23
45071;BME280;30836;48.906;9.140;2024-03-17T03:13:54;992.54;;;15.69;51.27
45071;BME280;30836;48.906;9.140;2024-03-17T03:14:55;992.54;;;15.68;51.34
45071;BME280;30836;48.906;9.140;2024-03-17T03:15:55;992.54;;;15.67;51.42
45071;BME280;30836;48.906;9.140;2024-03-17T03:16:56;992.54;;;15.67;51.40
45071;BME280;30836;48.906;9.140;2024-03-17T03:17:56;992.52;;;15.68;51.42
45071;BME280;30836;48.906;9.140;2024-03-17T03:18:57;992.52;;;15.69;51.37
45071;BME280;30836;48.906;9.140;2024-03-17T03:19:57;992.52;;;15.70;51.33
45071;BME280;30836;48.906;9.140;2024-03-17T03:20:57;992.50;;;15.72;51.28
45071;BME280;30836;48.906;9.140;2024-03-17T03:21:58;992.48;;;15.72;51.28
45071;BME280;30836;48.906;9.140;2024-03-17T03:22:58;992.48;;;15.74;51.22
45071;BME280;30836;48.906;9.140;2024-03-17T03:23:59;992.46;;;15.75;51.16
45071;BME280;30836;48.906;9.140;2024-03-17T03:24:59;992.46;;;15.76;51.10
45071;BME280;30836;48.906;9.140;2024-03-17T03:26:00;992.46;;;15.76;51.10
45071;BME280;30836;48.906;9.140;2024-03-17T03:27:02;992.46;;;15.78;51.10
45071;BME280;30836;48.906;9.140;2024-03-17T03:28:02;992.48;;;15.84;50.86
45071;BME280;30836;48.906;9.140;2024-03-17T03:29:03;992.48;;;15.93;50.58
45071;BME280;30836;48.906;9.140;2024-03-17T03:30:03;992.48;;;16.03;50.34
45071;BME280;30836;48.906;9.140;2024-03-17T03:31:04;992.50;;;16.11;50.00
45071;BME280;30836;48.906;9.140;2024-03-17T03:32:04;992.48;;;16.18;49.88
45071;BME280;30836;48.906;9.140;2024-03-17T03:33:05;992.50;;;16.24;49.73
45071;BME280;30836;48.906;9.140;2024-03-17T03:34:06;992.46;;;16.28;49.61
45071;BME280;30836;48.906;9.140;2024-03-17T03:35:07;992.44;;;16.32;49.56
45071;BME280;30836;48.906;9.140;2024-03-17T03:36:11;992.44;;;16.35;49.31
45071;BME280;30836;48.906;9.140;2024-03-17T03:37:12;992.46;;;16.36;49.28
45071;BME280;30836;48.906;9.140;2024-03-17T03:38:13;992.46;;;16.38;49.26
45071;BME280;30836;48.906;9.140;2024-03-17T03:39:14;992.46;;;16.40;49.20
45071;BME280;30836;48.906;9.140;2024-03-17T03:40:14;992.48;;;16.41;49.18
45071;BME280;30836;48.906;9.140;2024-03-17T03:41:15;992.50;;;16.41;49.01
45071;BME280;30836;48.906;9.140;2024-03-17T03:42:16;992.54;;;16.41;49.05
45071;BME280;30836;48.906;9.140;2024-03-17T03:43:16;992.52;;;16.41;49.06
45071;BME280;30836;48.906;9.140;2024-03-17T03:44:16;992.52;;;16.42;48.93
45071;BME280;30836;48.906;9.140;2024-03-17T03:45:17;992.54;;;16.41;48.94
45071;BME280;30836;48.906;9.140;2024-03-17T03:46:17;992.52;;;16.40;48.85
45071;BME280;30836;48.906;9.140;2024-03-17T03:47:18;992.52;;;16.39;48.76
45071;BME280;30836;48.906;9.140;2024-03-17T03:48:18;992.48;;;16.39;48.78
45071;BME280;30836;48.906;9.140;2024-03-17T03:49:19;992.48;;;16.39;48.74
45071;BME280;30836;48.906;9.140;2024-03-17T03:50:20;992.48;;;16.37;48.49
45071;BME280;30836;48.906;9.140;2024-03-17T03:51:21;992.48;;;16.35;48.53
45071;BME280;30836;48.906;9.140;2024-03-17T03:52:22;992.50;;;16.33;48.53
45071;BME280;30836;48.906;9.140;2024-03-17T03:53:22;992.48;;;16.30;48.45
45071;BME280;30836;48.906;9.140;2024-03-17T03:54:23;992.46;;;16.27;48.33
45071;BME280;30836;48.906;9.140;2024-03-17T03:55:24;992.42;;;16.24;48.28
45071;BME280;30836;48.906;9.140;2024-03-17T03:56:24;992.42;;;16.22;48.26
45071;BME280;30836;48.906;9.140;2024-03-17T03:57:25;992.42;;;16.21;48.22
45071;BME280;30836;48.906;9.140;2024-03-17T03:58:25;992.44;;;16.20;48.17
45071;BME280;30836;48.906;9.140;2024-03-17T03:59:25;992.46;;;16.20;48.14
45071;BME280;30836;48.906;9.140;2024-03-17T04:00:26;992.46;;;16.19;48.18
45071;BME280;30836;48.906;9.140;2024-03-17T04:01:26;992.46;;;16.16;48.04
45071;BME280;30836;48.906;9.140;2024-03-17T04:02:27;992.44;;;16.12;47.81
45071;BME280;30836;48.906;9.140;2024-03-17T04:03:27;992.46;;;16.06;47.86
45071;BME280;30836;48.906;9.140;2024-03-17T04:04:28;992.48;;;16.02;47.96
45071;BME280;30836;48.906;9.140;2024-03-17T04:05:28;992.48;;;15.99;47.90
45071;BME280;30836;48.906;9.140;2024-03-17T04:06:28;992.46;;;15.96;47.82
45071;BME280;30836;48.906;9.140;2024-03-17T04:07:29;992.46;;;15.93;47.85
45071;BME280;30836;48.906;9.140;2024-03-17T04:08:29;992.46;;;15.90;47.82
45071;BME280;30836;48.906;9.140;2024-03-17T04:09:30;992.46;;;15.89;47.85
45071;BME280;30836;48.906;9.140;2024-03-17T04:10:30;992.46;;;15.88;47.88
45071;BME280;30836;48.906;9.140;2024-03-17T04:11:32;992.44;;;15.89;47.92
45071;BME280;30836;48.906;9.140;2024-03-17T04:12:33;992.44;;;15.89;47.90
45071;BME280;30836;48.906;9.140;2024-03-17T04:13:34;992.44;;;15.90;47.90
45071;BME280;30836;48.906;9.140;2024-03-17T04:14:34;992.42;;;15.91;47.85
45071;BME280;30836;48.906;9.140;2024-03-17T04:15:35;992.42;;;15.92;47.90
45071;BME280;30836;48.906;9.140;2024-03-17T04:16:35;992.42;;;15.92;47.93
45071;BME280;30836;48.906;9.140;2024-03-17T04:17:36;992.44;;;15.93;47.96
45071;BME280;30836;48.906;9.140;2024-03-17T04:18:37;992.34;;;15.95;47.99
45071;BME280;30836;48.906;9.140;2024-03-17T04:19:37;992.44;;;15.96;47.94
45071;BME280;30836;48.906;9.140;2024-03-17T04:20:39;992.42;;;15.98;47.89
45071;BME280;30836;48.906;9.140;2024-03-17T04:21:40;992.44;;;15.99;47.84
45071;BME280;30836;48.906;9.140;2024-03-17T04:22:41;992.42;;;16.01;47.86
45071;BME280;30836;48.906;9.140;2024-03-17T04:23:41;992.44;;;16.02;47.86
45071;BME280;30836;48.906;9.140;2024-03-17T04:24:45;992.46;;;16.03;47.92
45071;BME280;30836;48.906;9.140;2024-03-17T04:25:47;992.48;;;16.04;47.84
45071;BME280;30836;48.906;9.140;2024-03-17T04:26:49;992.48;;;16.04;47.82
45071;BME280;30836;48.906;9.140;2024-03-17T04:27:49;992.48;;;16.05;47.84
45071;BME280;30836;48.906;9.140;2024-03-17T04:28:49;992.48;;;16.05;47.84
45071;BME280;30836;48.906;9.140;2024-03-17T04:29:51;992.48;;;16.04;47.81
45071;BME280;30836;48.906;9.140;2024-03-17T04:30:52;992.50;;;16.03;47.82
45071;BME280;30836;48.906;9.140;2024-03-17T04:31:53;992.48;;;16.03;47.88
45071;BME280;30836;48.906;9.140;2024-03-17T04:32:53;992.50;;;16.04;47.85
45071;BME280;30836;48.906;9.140;2024-03-17T04:33:54;992.50;;;16.04;47.86
45071;BME280;30836;48.906;9.140;2024-03-17T04:34:54;992.50;;;16.05;47.86
45071;BME280;30836;48.906;9.140;2024-03-17T04:35:54;992.52;;;16.07;47.83
45071;BME280;30836;48.906;9.140;2024-03-17T04:36:55;992.50;;;16.07;47.75
45071;BME280;30836;48.906;9.140;2024-03-17T04:37:55;992.50;;;16.07;47.78
45071;BME280;30836;48.906;9.140;2024-03-17T04:38:56;992.48;;;16.06;47.81
45071;BME280;30836;48.906;9.140;2024-03-17T04:39:56;992.44;;;16.06;47.86
45071;BME280;30836;48.906;9.140;2024-03-17T04:40:56;992.44;;;16.05;47.83
45071;BME280;30836;48.906;9.140;2024-03-17T04:41:57;992.44;;;16.04;47.92
45071;BME280;30836;48.906;9.140;2024-03-17T04:42:57;992.46;;;16.04;47.87
45071;BME280;30836;48.906;9.140;2024-03-17T04:43:58;992.44;;;16.04;47.86
45071;BME280;30836;48.906;9.140;2024-03-17T04:44:58;992.42;;;16.05;47.86
45071;BME280;30836;48.906;9.140;2024-03-17T04:45:59;992.34;;;16.05;47.77
45071;BME280;30836;48.906;9.140;2024-03-17T04:47:03;992.42;;;16.05;47.68
45071;BME280;30836;48.906;9.140;2024-03-17T04:48:04;992.46;;;16.04;47.63
45071;BME280;30836;48.906;9.140;2024-03-17T04:49:05;992.46;;;16.03;47.63
45071;BME280;30836;48.906;9.140;2024-03-17T04:50:05;992.46;;;16.03;47.68
45071;BME280;30836;48.906;9.140;2024-03-17T04:51:06;992.48;;;16.04;47.70
45071;BME280;30836;48.906;9.140;2024-03-17T04:52:07;992.48;;;16.04;47.71
45071;BME280;30836;48.906;9.140;2024-03-17T04:53:07;992.46;;;16.05;47.69
45071;BME280;30836;48.906;9.140;2024-03-17T04:54:08;992.46;;;16.05;47.71
45071;BME280;30836;48.906;9.140;2024-03-17T04:55:08;992.48;;;16.05;47.62
45071;BME280;30836;48.906;9.140;2024-03-17T04:56:09;992.50;;;16.05;47.62
45071;BME280;30836;48.906;9.140;2024-03-17T04:57:09;992.48;;;16.04;47.65
45071;BME280;30836;48.906;9.140;2024-03-17T04:58:10;992.52;;;16.04;47.62
45071;BME280;30836;48.906;9.140;2024-03-17T04:59:10;992.50;;;16.04;47.65
45071;BME280;30836;48.906;9.140;2024-03-17T05:00:11;992.52;;;16.03;47.56
45071;BME280;30836;48.906;9.140;2024-03-17T05:01:12;992.56;;;16.03;47.63
45071;BME280;30836;48.906;9.140;2024-03-17T05:02:12;992.56;;;16.00;47.68
45071;BME280;30836;48.906;9.140;2024-03-17T05:03:13;992.50;;;15.94;47.80
45071;BME280;30836;48.906;9.140;2024-03-17T05:04:13;992.50;;;15.91;47.97
45071;BME280;30836;48.906;9.140;2024-03-17T05:05:13;992.48;;;15.88;48.02
45071;BME280;30836;48.906;9.140;2024-03-17T05:06:14;992.48;;;15.86;48.06
45071;BME280;30836;48.906;9.140;2024-03-17T05:07:14;992.48;;;15.84;48.09
45071;BME280;30836;48.906;9.140;2024-03-17T05:08:15;992.48;;;15.83;48.07
45071;BME280;30836;48.906;9.140;2024-03-17T05:09:18;992.44;;;15.82;48.07
45071;BME280;30836;48.906;9.140;2024-03-17T05:10:19;992.44;;;15.81;48.14
45071;BME280;30836;48.906;9.140;2024-03-17T05:11:19;992.48;;;15.79;48.14
45071;BME280;30836;48.906;9.140;2024-03-17T05:12:20;992.48;;;15.75;48.26
45071;BME280;30836;48.906;9.140;2024-03-17T05:13:20;992.50;;;15.73;48.29
45071;BME280;30836;48.906;9.140;2024-03-17T05:14:21;992.48;;;15.70;48.35
45071;BME280;30836;48.906;9.140;2024-03-17T05:15:21;992.50;;;15.67;48.35
45071;BME280;30836;48.906;9.140;2024-03-17T05:16:21;992.50;;;15.63;48.43
45071;BME280;30836;48.906;9.140;2024-03-17T05:17:22;992.48;;;15.62;48.46
45071;BME280;30836;48.906;9.140;2024-03-17T05:18:23;992.48;;;15.61;48.49
45071;BME280;30836;48.906;9.140;2024-03-17T05:19:24;992.48;;;15.60;48.49
45071;BME280;30836;48.906;9.140;2024-03-17T05:20:24;992.48;;;15.61;48.50
45071;BME280;30836;48.906;9.140;2024-03-17T05:21:25;992.46;;;15.61;48.46
45071;BME280;30836;48.906;9.140;2024-03-17T05:22:25;992.46;;;15.60;48.57
45071;BME280;30836;48.906;9.140;2024-03-17T05:23:26;992.50;;;15.57;48.59
45071;BME280;30836;48.906;9.140;2024-03-17T05:24:27;992.48;;;15.55;48.67
45071;BME280;30836;48.906;9.140;2024-03-17T05:25:28;992.50;;;15.53;48.73
45071;BME280;30836;48.906;9.140;2024-03-17T05:26:28;992.50;;;15.52;48.78
45071;BME280;30836;48.906;9.140;2024-03-17T05:26:38;992.50;;;15.47;48.77
45071;BME280;30836;48.906;9.140;2024-03-17T05:27:39;992.50;;;15.46;48.88
45071;BME280;30836;48.906;9.140;2024-03-17T05:28:39;992.52;;;15.43;49.02
45071;BME280;30836;48.906;9.140;2024-03-17T05:29:40;992.52;;;15.37;49.29